createdAt,value
2023-07-14T00:00:19.921Z,8.30
2023-07-14T00:03:08.459Z,7.10
2023-07-14T00:05:38.275Z,8.80
2023-07-14T00:08:07.227Z,8.30
2023-07-14T00:10:37.957Z,9.90
2023-07-14T00:13:08.711Z,7.10
2023-07-14T00:15:37.797Z,8.00
2023-07-14T00:18:17.385Z,7.60
2023-07-14T00:20:45.592Z,7.10
2023-07-14T00:23:14.709Z,11.10
2023-07-14T00:25:42.983Z,6.80
2023-07-14T00:28:19.771Z,6.00
2023-07-14T00:30:48.832Z,6.30
2023-07-14T00:33:18.669Z,9.80
2023-07-14T00:35:48.915Z,8.20
2023-07-14T00:38:16.764Z,11.40
2023-07-14T00:40:45.880Z,4.10
2023-07-14T00:43:19.070Z,4.10
2023-07-14T00:45:48.402Z,6.90
2023-07-14T00:48:18.284Z,6.10
2023-07-14T00:50:49.625Z,5.80
2023-07-14T00:53:21.768Z,6.20
2023-07-14T00:55:51.766Z,5.50
2023-07-14T00:58:20.724Z,4.70
2023-07-14T01:01:03.794Z,5.80
2023-07-14T01:03:32.519Z,6.30
2023-07-14T01:06:01.932Z,7.10
2023-07-14T01:08:30.403Z,6.30
2023-07-14T01:10:58.653Z,4.50
2023-07-14T01:13:27.626Z,4.30
2023-07-14T01:15:55.455Z,8.30
2023-07-14T01:18:24.082Z,9.00
2023-07-14T01:20:52.485Z,6.80
2023-07-14T01:23:23.284Z,6.70
2023-07-14T01:26:11.813Z,6.40
2023-07-14T01:28:40.311Z,3.90
2023-07-14T01:31:13.269Z,6.30
2023-07-14T01:33:41.293Z,5.70
2023-07-14T01:36:09.650Z,5.20
2023-07-14T01:38:37.776Z,6.00
2023-07-14T01:41:06.992Z,4.70
2023-07-14T01:43:37.474Z,7.50
2023-07-14T01:46:08.971Z,5.70
2023-07-14T01:48:46.903Z,8.10
2023-07-14T01:51:15.443Z,5.50
2023-07-14T01:53:46.293Z,7.60
2023-07-14T01:59:00.813Z,7.80
2023-07-14T02:01:29.951Z,10.00
2023-07-14T02:03:58.824Z,7.50
2023-07-14T02:06:27.113Z,7.90
2023-07-14T02:08:54.993Z,10.10
2023-07-14T02:11:23.945Z,8.70
2023-07-14T02:13:52.776Z,10.10
2023-07-14T02:16:22.012Z,7.70
2023-07-14T02:18:50.281Z,3.70
2023-07-14T02:21:24.849Z,8.40
2023-07-14T02:23:53.570Z,6.70
2023-07-14T02:26:41.627Z,7.00
2023-07-14T02:29:12.560Z,7.60
2023-07-14T02:31:43.903Z,10.50
2023-07-14T02:34:12.602Z,5.60
2023-07-14T02:36:40.392Z,5.80
2023-07-14T02:39:08.827Z,9.90
2023-07-14T02:41:39.515Z,7.90
2023-07-14T02:44:09.261Z,7.30
2023-07-14T02:46:37.044Z,7.60
2023-07-14T02:49:07.227Z,12.00
2023-07-14T02:51:35.075Z,9.50
2023-07-14T02:54:03.040Z,14.20
2023-07-14T02:56:31.837Z,6.20
2023-07-14T02:58:59.664Z,7.40
2023-07-14T03:01:30.174Z,9.60
2023-07-14T03:03:58.081Z,7.20
2023-07-14T03:06:26.499Z,8.20
2023-07-14T03:08:54.385Z,8.80
2023-07-14T03:11:22.249Z,3.90
2023-07-14T03:13:50.186Z,6.90
2023-07-14T03:16:18.158Z,6.40
2023-07-14T03:18:46.261Z,5.20
2023-07-14T03:21:14.476Z,6.60
2023-07-14T03:23:42.699Z,4.40
2023-07-14T03:26:11.169Z,6.10
2023-07-14T03:28:39.858Z,4.90
2023-07-14T03:31:07.934Z,11.60
2023-07-14T03:33:35.725Z,4.60
2023-07-14T03:36:07.570Z,5.70
2023-07-14T03:38:42.948Z,5.80
2023-07-14T03:41:12.256Z,6.50
2023-07-14T03:43:40.439Z,9.40
2023-07-14T03:46:08.999Z,5.90
2023-07-14T03:48:37.019Z,6.20
2023-07-14T03:51:04.991Z,4.50
2023-07-14T03:53:33.258Z,9.10
2023-07-14T03:56:01.100Z,9.00
2023-07-14T03:58:29.556Z,7.80
2023-07-14T04:01:01.512Z,7.80
2023-07-14T04:03:29.518Z,6.20
2023-07-14T04:05:57.659Z,9.80
2023-07-14T04:08:36.034Z,5.40
2023-07-14T04:11:03.887Z,8.70
2023-07-14T04:13:32.542Z,5.30
2023-07-14T04:16:00.668Z,7.70
2023-07-14T04:18:28.590Z,5.70
2023-07-14T04:21:00.237Z,6.60
2023-07-14T04:23:28.299Z,5.80
2023-07-14T04:25:56.201Z,8.90
2023-07-14T04:28:24.069Z,10.50
2023-07-14T04:30:55.914Z,9.20
2023-07-14T04:33:24.187Z,7.60
2023-07-14T04:35:52.787Z,4.60
2023-07-14T04:38:21.645Z,4.50
2023-07-14T04:40:49.479Z,4.40
2023-07-14T04:43:19.151Z,5.70
2023-07-14T04:45:47.702Z,6.60
2023-07-14T04:48:19.467Z,5.90
2023-07-14T04:50:47.872Z,6.10
2023-07-14T04:53:16.241Z,16.00
2023-07-14T04:55:45.156Z,10.80
2023-07-14T04:58:14.204Z,10.90
2023-07-14T05:00:43.149Z,12.90
2023-07-14T05:03:12.094Z,11.30
2023-07-14T05:05:40.383Z,20.90
2023-07-14T05:08:08.607Z,9.10
2023-07-14T05:10:38.803Z,15.10
2023-07-14T05:13:07.850Z,13.70
2023-07-14T05:15:35.853Z,9.50
2023-07-14T05:18:03.702Z,8.50
2023-07-14T05:20:31.877Z,9.50
2023-07-14T05:22:59.960Z,12.80
2023-07-14T05:25:27.845Z,10.30
2023-07-14T05:27:56.005Z,7.60
2023-07-14T05:30:23.811Z,10.90
2023-07-14T05:32:51.775Z,13.70
2023-07-14T05:35:19.751Z,16.80
2023-07-14T05:37:47.693Z,16.20
2023-07-14T05:40:16.301Z,15.40
2023-07-14T05:42:44.096Z,19.60
2023-07-14T05:45:12.575Z,12.80
2023-07-14T05:47:42.575Z,11.40
2023-07-14T05:59:59.268Z,13.60
2023-07-14T06:02:27.300Z,14.60
2023-07-14T06:04:55.353Z,12.10
2023-07-14T06:07:23.179Z,10.90
2023-07-14T06:09:50.949Z,12.00
2023-07-14T06:12:18.707Z,14.20
2023-07-14T06:14:46.447Z,10.80
2023-07-14T06:17:14.374Z,11.40
2023-07-14T06:19:42.270Z,10.90
2023-07-14T06:22:10.194Z,9.10
2023-07-14T06:24:38.740Z,9.00
2023-07-14T06:27:09.919Z,10.20
2023-07-14T06:29:39.254Z,7.90
2023-07-14T06:32:07.382Z,7.60
2023-07-14T06:34:35.249Z,12.30
2023-07-14T06:37:03.083Z,7.30
2023-07-14T06:39:31.020Z,8.40
2023-07-14T06:41:58.757Z,7.70
2023-07-14T06:44:27.430Z,5.40
2023-07-14T06:46:55.455Z,8.50
2023-07-14T06:49:25.153Z,9.50
2023-07-14T06:51:55.743Z,7.10
2023-07-14T06:54:23.607Z,7.80
2023-07-14T06:56:51.417Z,5.30
2023-07-14T06:59:19.580Z,6.10
2023-07-14T07:01:47.448Z,8.00
2023-07-14T07:04:16.433Z,6.30
2023-07-14T07:06:44.527Z,5.50
2023-07-14T07:09:12.283Z,6.50
2023-07-14T07:11:40.109Z,5.70
2023-07-14T07:14:08.336Z,5.50
2023-07-14T07:16:36.376Z,5.60
2023-07-14T07:19:04.455Z,6.40
2023-07-14T07:21:32.229Z,10.70
2023-07-14T07:24:00.129Z,7.60
2023-07-14T07:26:28.070Z,5.40
2023-07-14T07:28:55.976Z,7.20
2023-07-14T07:31:24.056Z,5.90
2023-07-14T07:33:52.286Z,4.10
2023-07-14T07:36:20.236Z,5.70
2023-07-14T07:38:49.963Z,4.60
2023-07-14T07:41:19.892Z,6.70
2023-07-14T07:43:47.803Z,2.60
2023-07-14T07:46:16.235Z,5.70
2023-07-14T07:48:45.468Z,4.00
2023-07-14T07:51:13.574Z,4.10
2023-07-14T07:53:41.754Z,7.40
2023-07-14T07:56:10.084Z,3.00
2023-07-14T07:58:38.010Z,3.40
2023-07-14T08:01:06.671Z,6.30
2023-07-14T08:03:35.364Z,7.10
2023-07-14T08:06:04.704Z,7.20
2023-07-14T08:08:32.538Z,6.50
2023-07-14T08:11:00.330Z,4.00
2023-07-14T08:13:30.845Z,4.40
2023-07-14T08:15:59.446Z,6.00
2023-07-14T08:18:27.899Z,3.80
2023-07-14T08:20:55.711Z,3.50
2023-07-14T08:23:25.578Z,3.50
2023-07-14T08:26:04.608Z,3.70
2023-07-14T08:28:32.418Z,3.50
2023-07-14T08:31:01.652Z,3.30
2023-07-14T08:33:29.742Z,8.20
2023-07-14T08:36:01.938Z,3.60
2023-07-14T08:38:34.499Z,2.70
2023-07-14T08:41:10.690Z,3.50
2023-07-14T08:43:54.155Z,3.70
2023-07-14T08:46:28.100Z,4.10
2023-07-14T08:49:06.324Z,4.20
2023-07-14T08:51:34.368Z,4.90
2023-07-14T08:54:05.160Z,3.50
2023-07-14T08:56:35.666Z,6.40
2023-07-14T08:59:03.579Z,6.40
2023-07-14T09:01:36.934Z,4.10
2023-07-14T09:04:06.736Z,3.90
2023-07-14T09:09:03.320Z,4.00
2023-07-14T09:11:37.123Z,3.40
2023-07-14T09:14:04.951Z,3.90
2023-07-14T09:16:36.154Z,3.70
2023-07-14T09:19:09.747Z,5.50
2023-07-14T09:21:40.715Z,6.30
2023-07-14T09:24:08.471Z,5.50
2023-07-14T09:26:40.432Z,3.70
2023-07-14T09:29:19.875Z,4.70
2023-07-14T09:32:03.231Z,2.50
2023-07-14T09:34:39.870Z,5.70
2023-07-14T09:37:21.328Z,4.50
2023-07-14T09:40:01.812Z,4.90
2023-07-14T09:42:33.954Z,4.90
2023-07-14T09:45:09.989Z,4.80
2023-07-14T09:47:38.125Z,3.10
2023-07-14T09:50:06.465Z,6.20
2023-07-14T09:52:48.729Z,6.40
2023-07-14T09:55:16.624Z,4.90
2023-07-14T09:57:53.815Z,4.20
2023-07-14T10:00:38.270Z,4.10
2023-07-14T10:03:11.136Z,2.60
2023-07-14T10:05:55.590Z,3.90
2023-07-14T10:08:36.787Z,3.20
2023-07-14T10:11:17.000Z,4.50
2023-07-14T10:13:51.411Z,3.90
2023-07-14T10:16:20.632Z,5.00
2023-07-14T10:18:50.312Z,3.70
2023-07-14T10:21:23.822Z,4.60
2023-07-14T10:23:58.898Z,5.70
2023-07-14T10:26:30.746Z,5.20
2023-07-14T10:28:59.751Z,5.00
2023-07-14T10:31:35.224Z,3.80
2023-07-14T10:34:18.558Z,3.50
2023-07-14T10:36:47.782Z,4.60
2023-07-14T10:39:20.584Z,3.00
2023-07-14T10:41:49.068Z,4.30
2023-07-14T10:44:27.253Z,3.30
2023-07-14T10:46:58.083Z,4.50
2023-07-14T10:49:33.140Z,3.00
2023-07-14T10:52:04.924Z,4.00
2023-07-14T10:55:08.379Z,4.70
2023-07-14T10:57:53.676Z,4.00
2023-07-14T11:00:24.089Z,4.10
2023-07-14T11:02:54.996Z,7.30
2023-07-14T11:05:24.640Z,3.70
2023-07-14T11:07:53.410Z,6.00
2023-07-14T11:10:28.267Z,3.90
2023-07-14T11:13:02.367Z,3.80
2023-07-14T11:15:37.411Z,3.90
2023-07-14T11:18:05.227Z,5.40
2023-07-14T11:20:37.225Z,4.40
2023-07-14T11:23:20.383Z,5.50
2023-07-14T11:25:48.432Z,3.60
2023-07-14T11:28:28.616Z,4.70
2023-07-14T11:30:59.680Z,3.80
2023-07-14T11:33:45.094Z,4.00
2023-07-14T11:36:16.472Z,6.30
2023-07-14T11:38:54.580Z,4.00
2023-07-14T11:41:23.316Z,3.70
2023-07-14T11:43:54.313Z,4.40
2023-07-14T11:46:23.865Z,3.30
2023-07-14T11:48:54.918Z,5.10
2023-07-14T11:51:42.796Z,6.40
2023-07-14T11:54:17.986Z,4.90
2023-07-14T11:56:55.945Z,3.90
2023-07-14T11:59:26.114Z,5.90
2023-07-14T12:04:24.949Z,4.10
2023-07-14T12:06:53.194Z,6.00
2023-07-14T12:09:21.031Z,7.30
2023-07-14T12:11:57.180Z,4.70
2023-07-14T12:14:26.561Z,4.50
2023-07-14T12:16:55.166Z,4.30
2023-07-14T12:19:28.089Z,2.70
2023-07-14T12:22:03.871Z,4.50
2023-07-14T12:24:34.142Z,3.70
2023-07-14T12:27:22.615Z,3.00
2023-07-14T12:29:58.104Z,3.60
2023-07-14T12:32:26.443Z,4.70
2023-07-14T12:34:54.570Z,2.90
2023-07-14T12:37:23.420Z,3.30
2023-07-14T12:39:52.295Z,3.40
2023-07-14T12:42:20.828Z,2.80
2023-07-14T12:44:52.266Z,2.60
2023-07-14T12:47:20.885Z,2.90
2023-07-14T12:49:50.442Z,2.70
2023-07-14T12:52:29.100Z,4.60
2023-07-14T12:55:05.052Z,3.10
2023-07-14T12:57:33.398Z,2.30
2023-07-14T13:00:17.519Z,4.90
2023-07-14T13:02:45.931Z,5.60
2023-07-14T13:05:17.343Z,4.80
2023-07-14T13:07:49.640Z,3.70
2023-07-14T13:10:36.179Z,2.70
2023-07-14T13:13:06.958Z,3.40
2023-07-14T13:15:38.147Z,4.90
2023-07-14T13:18:25.365Z,4.50
2023-07-14T13:20:55.096Z,3.60
2023-07-14T13:23:25.936Z,4.30
2023-07-14T13:25:56.814Z,4.40
2023-07-14T13:28:41.706Z,5.40
2023-07-14T13:31:12.726Z,3.40
2023-07-14T13:33:41.132Z,4.50
2023-07-14T13:36:12.387Z,4.80
2023-07-14T13:38:41.052Z,6.10
2023-07-14T13:41:19.021Z,5.40
2023-07-14T13:43:48.076Z,3.70
2023-07-14T13:46:17.377Z,3.90
2023-07-14T13:48:45.850Z,4.30
2023-07-14T13:51:17.380Z,4.00
2023-07-14T13:53:47.187Z,7.50
2023-07-14T13:56:22.198Z,3.40
2023-07-14T13:58:50.323Z,4.00
2023-07-14T14:01:25.068Z,5.20
2023-07-14T14:03:55.002Z,5.20
2023-07-14T14:06:23.925Z,5.90
2023-07-14T14:08:51.742Z,8.50
2023-07-14T14:11:19.660Z,4.10
2023-07-14T14:13:47.496Z,3.70
2023-07-14T14:16:17.630Z,5.70
2023-07-14T14:18:49.726Z,4.60
2023-07-14T14:21:17.607Z,4.80
2023-07-14T14:23:45.372Z,4.00
2023-07-14T14:26:13.950Z,4.90
2023-07-14T14:28:41.777Z,2.90
2023-07-14T14:31:11.435Z,5.00
2023-07-14T14:33:39.344Z,7.10
2023-07-14T14:36:09.278Z,4.00
2023-07-14T14:38:45.979Z,4.10
2023-07-14T14:41:19.288Z,3.50
2023-07-14T14:43:49.752Z,3.90
2023-07-14T14:46:17.987Z,4.40
2023-07-14T14:48:45.878Z,3.80
2023-07-14T14:51:14.186Z,6.90
2023-07-14T14:53:42.780Z,4.60
2023-07-14T14:56:40.265Z,3.30
2023-07-14T14:59:12.992Z,6.70
2023-07-14T15:01:43.893Z,4.30
2023-07-14T15:04:30.499Z,4.20
2023-07-14T15:06:58.263Z,6.20
2023-07-14T15:09:26.117Z,4.70
2023-07-14T15:11:55.907Z,5.10
2023-07-14T15:14:33.229Z,5.10
2023-07-14T15:17:03.573Z,5.70
2023-07-14T15:19:33.795Z,3.90
2023-07-14T15:22:01.536Z,6.60
2023-07-14T15:24:29.396Z,4.40
2023-07-14T15:26:57.161Z,4.90
2023-07-14T15:29:25.108Z,3.50
2023-07-14T15:31:52.941Z,5.90
2023-07-14T15:34:20.881Z,4.50
2023-07-14T15:36:48.918Z,5.30
2023-07-14T15:39:17.441Z,4.50
2023-07-14T15:41:45.364Z,4.50
2023-07-14T15:44:15.715Z,7.20
2023-07-14T15:49:14.452Z,4.10
2023-07-14T15:54:30.934Z,5.80
2023-07-14T15:57:01.480Z,5.80
2023-07-14T16:01:57.342Z,4.60
2023-07-14T16:04:25.298Z,5.00
2023-07-14T16:06:54.610Z,5.70
2023-07-14T16:09:27.760Z,5.60
2023-07-14T16:11:55.861Z,7.50
2023-07-14T16:14:25.879Z,5.10
2023-07-14T16:16:54.003Z,3.10
2023-07-14T16:19:23.027Z,4.10
2023-07-14T16:21:52.281Z,4.60
2023-07-14T16:24:22.015Z,3.10
2023-07-14T16:26:53.735Z,8.80
2023-07-14T16:29:22.414Z,5.60
2023-07-14T16:31:51.128Z,5.40
2023-07-14T16:34:19.070Z,4.40
2023-07-14T16:36:47.501Z,5.30
2023-07-14T16:39:22.005Z,5.00
2023-07-14T16:41:50.269Z,4.60
2023-07-14T16:44:18.467Z,4.60
2023-07-14T16:47:06.412Z,4.40
2023-07-14T16:49:34.158Z,5.00
2023-07-14T16:52:02.428Z,3.20
2023-07-14T16:54:34.509Z,5.40
2023-07-14T16:57:02.965Z,6.00
2023-07-14T16:59:31.074Z,3.40
2023-07-14T17:01:59.240Z,5.10
2023-07-14T17:04:28.831Z,3.70
2023-07-14T17:06:56.826Z,6.20
2023-07-14T17:09:26.583Z,4.20
2023-07-14T17:11:55.766Z,3.90
2023-07-14T17:14:27.247Z,3.90
2023-07-14T17:16:55.117Z,7.20
2023-07-14T17:19:22.977Z,4.60
2023-07-14T17:21:59.900Z,5.70
2023-07-14T17:24:28.153Z,5.30
2023-07-14T17:26:56.028Z,3.90
2023-07-14T17:29:29.428Z,4.50
2023-07-14T17:31:57.779Z,3.90
2023-07-14T17:34:25.604Z,4.10
2023-07-14T17:36:55.928Z,8.90
2023-07-14T17:39:39.681Z,6.30
2023-07-14T17:42:16.190Z,6.30
2023-07-14T17:44:43.976Z,3.60
2023-07-14T17:47:11.871Z,5.00
2023-07-14T17:49:40.030Z,3.90
2023-07-14T17:52:13.722Z,4.10
2023-07-14T17:54:43.346Z,4.60
2023-07-14T17:57:16.155Z,3.40
2023-07-14T17:59:44.032Z,5.10
2023-07-14T18:02:18.761Z,3.30
2023-07-14T18:04:46.662Z,2.40
2023-07-14T18:07:15.013Z,4.20
2023-07-14T18:09:45.706Z,4.50
2023-07-14T18:12:15.038Z,3.70
2023-07-14T18:14:43.297Z,4.10
2023-07-14T18:17:15.279Z,4.80
2023-07-14T18:19:43.378Z,5.50
2023-07-14T18:22:20.304Z,8.30
2023-07-14T18:24:48.276Z,5.80
2023-07-14T18:27:18.866Z,6.40
2023-07-14T18:29:47.493Z,9.60
2023-07-14T18:32:15.915Z,8.30
2023-07-14T18:34:45.337Z,8.40
2023-07-14T18:37:15.069Z,9.00
2023-07-14T18:39:47.562Z,7.40
2023-07-14T18:42:19.852Z,9.60
2023-07-14T18:44:48.978Z,10.10
2023-07-14T18:47:19.425Z,8.50
2023-07-14T18:52:16.390Z,11.90
2023-07-14T18:54:45.470Z,11.20
2023-07-14T18:57:19.449Z,8.40
2023-07-14T18:59:48.632Z,8.00
2023-07-14T19:02:28.524Z,6.90
2023-07-14T19:04:59.594Z,13.50
2023-07-14T19:09:56.247Z,10.50
2023-07-14T19:12:24.976Z,10.90
2023-07-14T19:14:52.762Z,7.70
2023-07-14T19:17:20.722Z,10.30
2023-07-14T19:19:48.783Z,7.30
2023-07-14T19:22:17.444Z,8.70
2023-07-14T19:24:46.925Z,7.10
2023-07-14T19:27:15.700Z,7.50
2023-07-14T19:29:44.516Z,9.80
2023-07-14T19:32:18.975Z,8.80
2023-07-14T19:34:49.856Z,15.90
2023-07-14T19:37:18.614Z,18.80
2023-07-14T19:39:48.467Z,13.00
2023-07-14T19:42:20.145Z,9.60
2023-07-14T19:44:48.009Z,10.00
2023-07-14T19:47:17.713Z,6.00
2023-07-14T19:49:45.844Z,5.30
2023-07-14T19:52:14.005Z,7.10
2023-07-14T19:54:42.067Z,8.80
2023-07-14T19:57:13.735Z,22.50
2023-07-14T19:59:42.685Z,46.60
2023-07-14T20:02:31.042Z,480.10
2023-07-14T20:04:59.184Z,573.90
2023-07-14T20:07:27.026Z,233.60
2023-07-14T20:09:54.896Z,87.90
2023-07-14T20:12:22.688Z,27.20
2023-07-14T20:14:50.582Z,30.10
2023-07-14T20:17:18.459Z,35.40
2023-07-14T20:19:46.579Z,40.80
2023-07-14T20:22:19.790Z,33.40
2023-07-14T20:24:47.541Z,31.60
2023-07-14T20:27:19.549Z,25.90
2023-07-14T20:29:47.658Z,21.20
2023-07-14T20:32:16.223Z,13.90
2023-07-14T20:34:44.082Z,19.50
2023-07-14T20:37:15.635Z,24.20
2023-07-14T20:39:43.875Z,24.40
2023-07-14T20:42:15.378Z,17.90
2023-07-14T20:44:46.507Z,13.40
2023-07-14T20:47:15.211Z,10.90
2023-07-14T20:49:44.074Z,40.10
2023-07-14T20:52:17.047Z,17.70
2023-07-14T20:54:45.945Z,14.60
2023-07-14T20:57:18.488Z,15.70
2023-07-14T20:59:46.948Z,143.60
2023-07-14T21:02:20.542Z,28.00
2023-07-14T21:04:48.486Z,27.40
2023-07-14T21:07:16.651Z,23.40
2023-07-14T21:09:45.594Z,19.80
2023-07-14T21:12:17.795Z,10.80
2023-07-14T21:14:45.630Z,15.10
2023-07-14T21:17:14.651Z,10.50
2023-07-14T21:19:42.997Z,10.50
2023-07-14T21:22:12.679Z,8.50
2023-07-14T21:24:41.130Z,22.90
2023-07-14T21:27:16.434Z,21.20
2023-07-14T21:29:44.990Z,14.40
2023-07-14T21:32:25.561Z,18.80
2023-07-14T21:34:54.137Z,28.20
2023-07-14T21:37:22.049Z,16.10
2023-07-14T21:39:50.141Z,22.80
2023-07-14T21:42:18.141Z,36.40
2023-07-14T21:44:46.519Z,29.30
2023-07-14T21:47:14.446Z,29.20
2023-07-14T21:49:42.425Z,48.70
2023-07-14T21:52:13.956Z,70.50
2023-07-14T21:54:41.818Z,50.60
2023-07-14T21:57:10.248Z,33.60
2023-07-14T21:59:38.037Z,47.50
2023-07-14T22:02:06.191Z,128.10
2023-07-14T22:04:35.329Z,53.60
2023-07-14T22:07:04.064Z,61.30
2023-07-14T22:09:37.160Z,52.90
2023-07-14T22:12:11.361Z,59.00
2023-07-14T22:14:40.065Z,70.30
2023-07-14T22:17:11.208Z,44.20
2023-07-14T22:19:41.750Z,29.40
2023-07-14T22:22:10.176Z,30.70
2023-07-14T22:24:37.994Z,18.50
2023-07-14T22:27:10.046Z,26.80
2023-07-14T22:29:40.693Z,24.70
2023-07-14T22:34:36.566Z,15.30
2023-07-14T22:37:04.699Z,13.60
2023-07-14T22:39:33.748Z,20.10
2023-07-14T22:42:01.536Z,9.30
2023-07-14T22:44:29.360Z,13.30
2023-07-14T22:46:57.195Z,8.70
2023-07-14T22:49:25.134Z,9.30
2023-07-14T22:51:55.874Z,9.60
2023-07-14T22:54:24.349Z,8.50
2023-07-14T22:56:53.507Z,9.90
2023-07-14T22:59:21.488Z,7.60
2023-07-14T23:01:50.503Z,8.10
2023-07-14T23:04:18.401Z,8.10
2023-07-14T23:06:58.474Z,7.50
2023-07-14T23:09:27.044Z,10.00
2023-07-14T23:11:54.837Z,7.90
2023-07-14T23:14:22.564Z,7.40
2023-07-14T23:16:51.064Z,8.00
2023-07-14T23:19:19.049Z,7.20
2023-07-14T23:21:46.910Z,8.20
2023-07-14T23:24:17.395Z,7.90
2023-07-14T23:26:45.236Z,8.20
2023-07-14T23:29:13.268Z,9.00
2023-07-14T23:31:44.441Z,8.20
2023-07-14T23:34:13.093Z,10.80
2023-07-14T23:36:41.451Z,9.10
2023-07-14T23:39:09.358Z,8.10
2023-07-14T23:41:37.710Z,9.40
2023-07-14T23:44:07.938Z,8.60
2023-07-14T23:46:36.035Z,8.60
2023-07-14T23:49:04.180Z,10.00
2023-07-14T23:51:35.966Z,13.80
2023-07-14T23:54:07.430Z,8.60
2023-07-14T23:56:35.539Z,7.80
2023-07-14T23:59:04.540Z,10.30
